createdAt,value
2022-08-08T00:02:31.531Z,0.82
2022-08-08T00:05:19.069Z,0.90
2022-08-08T00:08:13.172Z,0.90
2022-08-08T00:11:00.957Z,0.88
2022-08-08T00:14:12.155Z,1.02
2022-08-08T00:16:59.251Z,0.85
2022-08-08T00:19:42.503Z,0.80
2022-08-08T00:22:30.371Z,0.85
2022-08-08T00:25:16.932Z,0.80
2022-08-08T00:27:58.970Z,1.10
2022-08-08T00:30:45.245Z,1.00
2022-08-08T00:34:18.209Z,1.00
2022-08-08T00:36:56.164Z,1.00
2022-08-08T00:41:10.698Z,1.10
2022-08-08T00:43:39.887Z,1.20
2022-08-08T00:46:57.120Z,1.15
2022-08-08T00:50:29.726Z,1.05
2022-08-08T00:53:20.490Z,0.88
2022-08-08T00:56:48.106Z,1.10
2022-08-08T01:00:06.485Z,1.10
2022-08-08T01:04:02.349Z,1.00
2022-08-08T01:07:12.933Z,1.20
2022-08-08T01:10:55.033Z,0.90
2022-08-08T01:14:13.637Z,0.82
2022-08-08T01:17:53.852Z,0.80
2022-08-08T01:20:46.797Z,0.82
2022-08-08T01:24:06.617Z,0.82
2022-08-08T01:27:32.943Z,0.90
2022-08-08T01:31:05.957Z,0.88
2022-08-08T01:34:28.976Z,0.90
2022-08-08T01:37:58.403Z,0.80
2022-08-08T01:40:54.152Z,0.80
2022-08-08T01:55:15.083Z,0.70
2022-08-08T01:56:28.358Z,0.80
2022-08-08T01:59:17.018Z,0.85
2022-08-08T02:02:10.747Z,0.98
2022-08-08T02:05:17.906Z,1.20
2022-08-08T02:08:15.355Z,0.80
2022-08-08T02:11:23.388Z,0.70
2022-08-08T02:14:08.532Z,0.80
2022-08-08T02:16:53.915Z,0.88
2022-08-08T02:20:07.650Z,0.75
2022-08-08T02:22:52.416Z,0.95
2022-08-08T02:25:47.417Z,0.88
2022-08-08T02:28:37.806Z,0.85
2022-08-08T02:31:58.390Z,0.70
2022-08-08T02:35:11.156Z,0.80
2022-08-08T02:38:31.361Z,0.75
2022-08-08T02:41:59.098Z,0.70
2022-08-08T02:45:18.553Z,0.68
2022-08-08T02:48:35.496Z,0.70
2022-08-08T02:51:56.468Z,0.88
2022-08-08T02:54:53.565Z,0.50
2022-08-08T02:58:07.534Z,0.70
2022-08-08T03:01:08.773Z,0.82
2022-08-08T03:05:02.421Z,0.60
2022-08-08T03:08:01.803Z,0.80
2022-08-08T03:11:48.101Z,0.70
2022-08-08T03:15:58.852Z,0.90
2022-08-08T03:18:04.790Z,0.80
2022-08-08T03:20:51.852Z,0.50
2022-08-08T03:23:56.554Z,0.70
2022-08-08T03:26:42.354Z,0.80
2022-08-08T03:29:38.060Z,0.80
2022-08-08T03:32:57.625Z,1.10
2022-08-08T03:35:36.996Z,0.98
2022-08-08T03:38:57.107Z,0.73
2022-08-08T03:42:03.819Z,0.90
2022-08-08T03:44:14.389Z,0.70
2022-08-08T03:46:53.188Z,0.85
2022-08-08T03:50:00.381Z,1.10
2022-08-08T03:52:31.723Z,0.80
2022-08-08T03:55:56.565Z,0.85
2022-08-08T03:58:35.139Z,0.50
2022-08-08T04:04:09.610Z,0.98
2022-08-08T04:07:01.910Z,0.60
2022-08-08T04:10:02.969Z,0.70
2022-08-08T04:12:43.181Z,0.73
2022-08-08T04:15:22.533Z,0.40
2022-08-08T04:17:59.624Z,0.60
2022-08-08T04:20:35.735Z,0.73
2022-08-08T04:23:15.416Z,0.60
2022-08-08T04:25:52.915Z,0.70
2022-08-08T04:28:36.640Z,0.90
2022-08-08T04:31:30.887Z,1.08
2022-08-08T04:34:16.538Z,0.77
2022-08-08T04:36:57.472Z,0.73
2022-08-08T04:40:04.261Z,0.93
2022-08-08T04:42:36.980Z,0.60
2022-08-08T04:45:15.713Z,0.80
2022-08-08T04:47:53.961Z,0.70
2022-08-08T04:50:38.199Z,0.70
2022-08-08T04:54:36.479Z,0.80
2022-08-08T04:56:18.594Z,1.00
2022-08-08T04:58:55.646Z,0.90
2022-08-08T05:01:35.581Z,0.90
2022-08-08T05:04:29.664Z,0.60
2022-08-08T05:07:07.074Z,0.60
2022-08-08T05:09:43.239Z,0.50
2022-08-08T05:12:21.427Z,0.70
2022-08-08T05:15:06.760Z,0.80
2022-08-08T05:17:54.584Z,1.05
2022-08-08T05:20:40.475Z,0.85
2022-08-08T05:23:29.880Z,0.82
2022-08-08T05:26:05.913Z,0.90
2022-08-08T05:28:56.055Z,0.93
2022-08-08T05:32:05.572Z,0.80
2022-08-08T05:34:41.864Z,0.73
2022-08-08T05:37:39.046Z,0.73
2022-08-08T05:40:28.109Z,1.00
2022-08-08T05:43:38.460Z,0.70
2022-08-08T05:46:13.384Z,0.80
2022-08-08T05:48:54.264Z,0.90
2022-08-08T05:51:47.914Z,0.95
2022-08-08T05:54:49.690Z,0.80
2022-08-08T05:58:03.948Z,0.65
2022-08-08T06:00:34.616Z,0.73
2022-08-08T06:03:25.280Z,0.90
2022-08-08T06:06:11.375Z,1.00
2022-08-08T06:09:00.510Z,0.80
2022-08-08T06:11:58.387Z,1.02
2022-08-08T06:14:37.523Z,0.80
2022-08-08T06:17:32.074Z,0.98
2022-08-08T06:20:27.944Z,0.90
2022-08-08T06:23:05.956Z,1.10
2022-08-08T06:26:35.675Z,1.10
2022-08-08T06:28:54.406Z,0.82
2022-08-08T06:32:09.017Z,0.80
2022-08-08T06:34:40.422Z,0.90
2022-08-08T06:37:24.965Z,1.00
2022-08-08T06:40:18.981Z,0.82
2022-08-08T06:43:01.624Z,1.08
2022-08-08T06:45:45.989Z,1.05
2022-08-08T06:48:26.845Z,0.90
2022-08-08T06:51:08.992Z,1.15
2022-08-08T06:53:51.013Z,0.98
2022-08-08T06:56:40.767Z,0.80
2022-08-08T06:59:23.503Z,0.90
2022-08-08T07:02:27.378Z,0.82
2022-08-08T07:05:12.018Z,0.80
2022-08-08T07:08:06.892Z,0.85
2022-08-08T07:10:55.606Z,0.80
2022-08-08T07:14:00.067Z,0.88
2022-08-08T07:16:54.553Z,0.80
2022-08-08T07:19:42.963Z,0.88
2022-08-08T07:22:27.516Z,1.00
2022-08-08T07:25:06.978Z,1.13
2022-08-08T07:28:02.584Z,1.10
2022-08-08T07:30:47.815Z,1.00
2022-08-08T07:33:27.603Z,1.10
2022-08-08T07:36:18.859Z,1.08
2022-08-08T07:38:57.579Z,1.10
2022-08-08T07:42:03.636Z,1.00
2022-08-08T07:44:43.668Z,0.80
2022-08-08T07:47:29.133Z,1.17
2022-08-08T07:50:23.329Z,1.20
2022-08-08T07:53:05.006Z,1.13
2022-08-08T07:55:43.478Z,0.88
2022-08-08T07:58:35.676Z,1.17
2022-08-08T08:01:15.632Z,1.00
2022-08-08T08:04:05.394Z,1.48
2022-08-08T08:06:43.945Z,1.40
2022-08-08T08:09:28.902Z,1.40
2022-08-08T08:12:31.596Z,1.20
2022-08-08T08:15:16.319Z,1.00
2022-08-08T08:17:55.708Z,1.25
2022-08-08T08:20:35.184Z,1.20
2022-08-08T08:23:14.739Z,1.15
2022-08-08T08:25:58.232Z,0.98
2022-08-08T08:28:36.960Z,1.27
2022-08-08T08:31:17.501Z,1.23
2022-08-08T08:33:54.329Z,0.90
2022-08-08T08:36:34.663Z,1.33
2022-08-08T08:39:17.693Z,1.27
2022-08-08T08:42:05.858Z,1.10
2022-08-08T08:44:48.026Z,1.40
2022-08-08T08:47:28.271Z,1.33
2022-08-08T08:50:32.859Z,1.13
2022-08-08T08:53:27.266Z,1.40
2022-08-08T08:56:23.986Z,1.52
2022-08-08T08:59:15.759Z,1.17
2022-08-08T09:02:00.701Z,1.00
2022-08-08T09:04:45.677Z,1.40
2022-08-08T09:07:39.302Z,1.52
2022-08-08T09:10:33.003Z,1.50
2022-08-08T09:13:13.548Z,1.45
2022-08-08T09:16:03.345Z,4.13
2022-08-08T09:18:46.423Z,7.70
2022-08-08T09:21:57.616Z,8.25
2022-08-08T09:24:27.291Z,5.63
2022-08-08T09:27:20.010Z,12.70
2022-08-08T09:30:10.245Z,9.82
2022-08-08T09:33:54.261Z,15.80
2022-08-08T09:35:57.284Z,2.10
2022-08-08T09:38:53.244Z,1.33
2022-08-08T09:42:15.010Z,1.00
2022-08-08T09:45:04.057Z,1.30
2022-08-08T09:48:04.003Z,1.10
2022-08-08T09:50:50.157Z,0.93
2022-08-08T09:53:59.958Z,1.20
2022-08-08T09:56:28.546Z,1.17
2022-08-08T09:59:39.531Z,0.98
2022-08-08T10:02:14.603Z,1.00
2022-08-08T10:04:52.680Z,1.05
2022-08-08T10:07:36.064Z,1.20
2022-08-08T10:10:30.144Z,0.95
2022-08-08T10:13:26.191Z,1.30
2022-08-08T10:16:09.494Z,0.80
2022-08-08T10:18:46.904Z,0.90
2022-08-08T10:21:33.015Z,1.08
2022-08-08T10:24:28.530Z,1.10
2022-08-08T10:27:13.216Z,1.00
2022-08-08T10:29:59.826Z,1.42
2022-08-08T10:32:48.585Z,1.25
2022-08-08T10:36:20.742Z,1.75
2022-08-08T10:38:28.167Z,1.70
2022-08-08T10:41:09.715Z,1.55
2022-08-08T10:43:46.287Z,1.95
2022-08-08T10:46:30.736Z,1.63
2022-08-08T10:49:07.446Z,1.50
2022-08-08T10:52:05.679Z,1.73
2022-08-08T10:54:43.945Z,1.60
2022-08-08T10:57:33.340Z,1.48
2022-08-08T11:00:26.829Z,1.55
2022-08-08T11:03:15.791Z,1.50
2022-08-08T11:06:00.638Z,1.80
2022-08-08T11:08:42.865Z,1.23
2022-08-08T11:11:32.559Z,1.48
2022-08-08T11:14:26.347Z,1.50
2022-08-08T11:17:04.755Z,1.58
2022-08-08T11:19:42.596Z,1.40
2022-08-08T11:22:27.935Z,1.40
2022-08-08T11:25:14.434Z,1.50
2022-08-08T11:27:54.518Z,1.50
2022-08-08T11:30:41.001Z,1.65
2022-08-08T11:33:35.283Z,1.30
2022-08-08T11:36:29.527Z,1.50
2022-08-08T11:39:10.825Z,1.35
2022-08-08T11:41:50.527Z,1.52
2022-08-08T11:44:29.321Z,1.50
2022-08-08T11:47:13.049Z,1.50
2022-08-08T11:49:56.345Z,1.50
2022-08-08T11:52:40.467Z,1.35
2022-08-08T11:55:28.787Z,1.70
2022-08-08T11:58:14.621Z,1.65
2022-08-08T12:00:52.309Z,1.33
2022-08-08T12:03:37.280Z,1.40
2022-08-08T12:06:19.770Z,1.63
2022-08-08T12:08:56.626Z,1.50
2022-08-08T12:11:41.827Z,1.40
2022-08-08T12:14:29.507Z,1.23
2022-08-08T12:17:05.723Z,1.83
2022-08-08T12:20:07.308Z,1.70
2022-08-08T12:22:57.126Z,1.40
2022-08-08T12:25:33.465Z,1.60
2022-08-08T12:28:17.758Z,1.45
2022-08-08T12:30:54.982Z,1.40
2022-08-08T12:33:37.571Z,1.50
2022-08-08T12:36:28.752Z,1.67
2022-08-08T12:39:12.127Z,1.70
2022-08-08T12:41:57.376Z,1.67
2022-08-08T12:44:39.249Z,1.60
2022-08-08T12:47:58.505Z,1.63
2022-08-08T12:50:46.801Z,1.42
2022-08-08T12:53:37.649Z,1.52
2022-08-08T12:56:23.857Z,1.52
2022-08-08T12:59:01.769Z,1.73
2022-08-08T13:01:41.816Z,1.52
2022-08-08T13:04:24.410Z,1.80
2022-08-08T13:07:06.214Z,1.60
2022-08-08T13:10:04.277Z,1.70
2022-08-08T13:12:47.113Z,1.40
2022-08-08T13:15:25.441Z,1.52
2022-08-08T13:18:11.046Z,1.38
2022-08-08T13:20:52.362Z,1.25
2022-08-08T13:23:36.743Z,1.58
2022-08-08T13:26:19.922Z,1.40
2022-08-08T13:28:56.438Z,1.63
2022-08-08T13:31:34.329Z,1.45
2022-08-08T13:34:13.040Z,1.20
2022-08-08T13:36:51.686Z,1.20
2022-08-08T13:39:29.090Z,1.42
2022-08-08T13:42:09.000Z,1.30
2022-08-08T13:44:47.302Z,1.20
2022-08-08T13:47:24.525Z,1.48
2022-08-08T13:50:39.239Z,1.30
2022-08-08T13:53:02.757Z,1.13
2022-08-08T13:56:04.348Z,1.27
2022-08-08T13:58:42.960Z,1.20
2022-08-08T14:01:32.901Z,1.38
2022-08-08T14:04:28.604Z,1.20
2022-08-08T14:07:09.144Z,1.25
2022-08-08T14:10:05.177Z,1.17
2022-08-08T14:12:50.223Z,1.20
2022-08-08T14:15:39.743Z,1.20
2022-08-08T14:18:34.586Z,1.30
2022-08-08T14:21:20.274Z,1.20
2022-08-08T14:24:03.908Z,0.93
2022-08-08T14:26:46.882Z,1.00
2022-08-08T14:29:30.653Z,1.10
2022-08-08T14:32:17.991Z,1.20
2022-08-08T14:35:04.330Z,1.20
2022-08-08T14:37:59.736Z,1.10
2022-08-08T14:40:40.692Z,1.20
2022-08-08T14:44:02.230Z,1.10
2022-08-08T14:46:34.067Z,1.10
2022-08-08T14:49:20.628Z,1.23
2022-08-08T14:52:14.699Z,1.10
2022-08-08T14:54:57.929Z,0.90
2022-08-08T14:58:05.896Z,1.10
2022-08-08T15:00:33.324Z,1.10
2022-08-08T15:03:16.068Z,1.00
2022-08-08T15:05:57.864Z,1.13
2022-08-08T15:08:38.616Z,0.90
2022-08-08T15:11:31.573Z,1.13
2022-08-08T15:14:20.748Z,1.23
2022-08-08T15:17:03.487Z,1.02
2022-08-08T15:19:41.272Z,1.00
2022-08-08T15:22:23.612Z,1.33
2022-08-08T15:25:01.297Z,1.05
2022-08-08T15:28:04.816Z,1.00
2022-08-08T15:30:35.295Z,1.10
2022-08-08T15:33:20.950Z,1.05
2022-08-08T15:36:12.648Z,0.95
2022-08-08T15:38:57.850Z,1.00
2022-08-08T15:41:43.625Z,0.90
2022-08-08T15:44:26.745Z,0.80
2022-08-08T15:47:04.919Z,1.13
2022-08-08T15:49:42.841Z,1.02
2022-08-08T15:52:20.809Z,1.00
2022-08-08T15:55:01.562Z,0.98
2022-08-08T15:57:39.981Z,1.05
2022-08-08T16:00:28.066Z,0.90
2022-08-08T16:03:06.417Z,1.00
2022-08-08T16:05:53.249Z,0.95
2022-08-08T16:08:38.254Z,1.10
2022-08-08T16:13:03.643Z,1.00
2022-08-08T16:14:33.726Z,0.90
2022-08-08T16:17:11.528Z,0.90
2022-08-08T16:19:57.209Z,1.13
2022-08-08T16:22:41.726Z,1.00
2022-08-08T16:25:19.880Z,0.90
2022-08-08T16:28:00.364Z,1.13
2022-08-08T16:30:39.310Z,0.90
2022-08-08T16:33:17.814Z,0.90
2022-08-08T16:36:08.757Z,1.20
2022-08-08T16:38:53.712Z,0.82
2022-08-08T16:41:33.391Z,0.90
2022-08-08T16:44:12.727Z,0.98
2022-08-08T16:46:50.193Z,0.82
2022-08-08T16:49:38.571Z,0.70
2022-08-08T16:55:06.263Z,0.85
2022-08-08T16:55:33.690Z,0.80
2022-08-08T16:58:14.114Z,0.82
2022-08-08T17:00:58.835Z,0.73
2022-08-08T17:03:58.511Z,0.82
2022-08-08T17:06:36.465Z,0.80
2022-08-08T17:09:16.076Z,0.80
2022-08-08T17:12:02.542Z,0.88
2022-08-08T17:14:40.600Z,0.88
2022-08-08T17:17:22.970Z,0.80
2022-08-08T17:20:20.627Z,0.70
2022-08-08T17:23:17.787Z,0.60
2022-08-08T17:26:05.032Z,0.60
2022-08-08T17:28:42.041Z,0.80
2022-08-08T17:31:45.103Z,0.60
2022-08-08T17:34:53.240Z,1.00
2022-08-08T17:37:22.915Z,0.70
2022-08-08T17:40:12.362Z,0.82
2022-08-08T17:42:51.604Z,0.73
2022-08-08T17:45:28.921Z,0.60
2022-08-08T17:48:14.877Z,0.80
2022-08-08T17:51:13.157Z,0.90
2022-08-08T17:53:57.876Z,0.60
2022-08-08T17:56:35.285Z,0.82
2022-08-08T17:59:12.281Z,1.10
2022-08-08T18:01:57.636Z,0.70
2022-08-08T18:04:37.548Z,0.80
2022-08-08T18:08:03.017Z,0.85
2022-08-08T18:10:31.125Z,0.55
2022-08-08T18:13:09.181Z,0.77
2022-08-08T18:15:46.396Z,0.88
2022-08-08T18:18:42.992Z,0.60
2022-08-08T18:22:00.511Z,0.70
2022-08-08T18:24:33.882Z,0.60
2022-08-08T18:27:17.058Z,0.63
2022-08-08T18:29:55.559Z,0.63
2022-08-08T18:32:32.619Z,0.70
2022-08-08T18:35:15.930Z,0.80
2022-08-08T18:37:56.852Z,0.90
2022-08-08T18:40:35.704Z,0.70
2022-08-08T18:43:16.603Z,0.47
2022-08-08T18:46:52.681Z,0.68
2022-08-08T18:48:51.397Z,0.60
2022-08-08T18:51:53.549Z,0.63
2022-08-08T18:54:29.945Z,0.75
2022-08-08T18:57:12.016Z,0.80
2022-08-08T18:59:50.296Z,0.60
2022-08-08T19:02:29.735Z,0.70
2022-08-08T19:05:09.519Z,0.70
2022-08-08T19:07:51.987Z,0.80
2022-08-08T19:10:28.998Z,0.80
2022-08-08T19:13:10.860Z,0.80
2022-08-08T19:15:58.215Z,0.70
2022-08-08T19:18:51.726Z,0.60
2022-08-08T19:21:47.841Z,0.80
2022-08-08T19:24:38.849Z,0.80
2022-08-08T19:27:55.484Z,0.80
2022-08-08T19:30:26.318Z,0.80
2022-08-08T19:33:06.120Z,0.85
2022-08-08T19:36:09.065Z,1.05
2022-08-08T19:38:43.914Z,1.10
2022-08-08T19:41:25.430Z,1.00
2022-08-08T19:44:12.852Z,1.00
2022-08-08T19:47:07.268Z,0.82
2022-08-08T19:49:59.954Z,0.95
2022-08-08T19:52:54.339Z,1.00
2022-08-08T19:55:37.795Z,1.10
2022-08-08T19:58:21.623Z,1.10
2022-08-08T20:01:03.262Z,0.90
2022-08-08T20:04:01.986Z,1.08
2022-08-08T20:06:43.719Z,1.20
2022-08-08T20:09:32.207Z,0.95
2022-08-08T20:12:11.699Z,1.17
2022-08-08T20:14:53.160Z,1.10
2022-08-08T20:17:31.705Z,1.08
2022-08-08T20:20:11.469Z,1.05
2022-08-08T20:22:56.162Z,1.08
2022-08-08T20:25:33.466Z,1.00
2022-08-08T20:28:17.625Z,1.58
2022-08-08T20:30:59.882Z,1.30
2022-08-08T20:34:28.083Z,1.10
2022-08-08T20:36:38.631Z,1.33
2022-08-08T20:39:17.664Z,1.20
2022-08-08T20:41:56.284Z,1.10
2022-08-08T20:44:32.155Z,1.10
2022-08-08T20:47:22.675Z,1.38
2022-08-08T20:50:01.167Z,1.15
2022-08-08T20:52:39.749Z,1.20
2022-08-08T20:55:22.397Z,1.20
2022-08-08T20:58:03.063Z,1.33
2022-08-08T21:00:42.441Z,1.10
2022-08-08T21:03:18.552Z,1.25
2022-08-08T21:05:59.404Z,1.15
2022-08-08T21:08:48.965Z,1.27
2022-08-08T21:11:52.152Z,1.30
2022-08-08T21:14:30.399Z,1.50
2022-08-08T21:17:15.017Z,1.30
2022-08-08T21:19:51.523Z,1.30
2022-08-08T21:22:36.847Z,1.42
2022-08-08T21:25:17.435Z,1.20
2022-08-08T21:28:14.360Z,1.40
2022-08-08T21:30:52.428Z,1.38
2022-08-08T21:33:31.953Z,1.15
2022-08-08T21:36:20.562Z,1.27
2022-08-08T21:38:57.174Z,1.27
2022-08-08T21:41:43.128Z,1.30
2022-08-08T21:44:27.554Z,1.38
2022-08-08T21:48:05.749Z,1.30
2022-08-08T21:50:04.923Z,1.27
2022-08-08T21:54:33.577Z,1.50
2022-08-08T21:56:20.148Z,1.45
2022-08-08T21:58:37.712Z,1.25
2022-08-08T22:01:27.914Z,1.65
2022-08-08T22:04:11.452Z,1.52
2022-08-08T22:06:48.065Z,1.70
2022-08-08T22:09:26.967Z,1.55
2022-08-08T22:12:15.021Z,1.65
2022-08-08T22:14:55.874Z,1.55
2022-08-08T22:17:45.096Z,1.80
2022-08-08T22:20:24.106Z,1.92
2022-08-08T22:23:04.500Z,1.60
2022-08-08T22:26:28.114Z,1.80
2022-08-08T22:29:12.841Z,1.42
2022-08-08T22:31:40.046Z,1.60
2022-08-08T22:34:39.277Z,1.40
2022-08-08T22:37:28.108Z,1.70
2022-08-08T22:40:17.110Z,1.33
2022-08-08T22:42:54.387Z,1.60
2022-08-08T22:45:31.914Z,1.60
2022-08-08T22:48:13.922Z,1.65
2022-08-08T22:50:50.341Z,1.83
2022-08-08T22:54:31.734Z,1.60
2022-08-08T22:56:23.376Z,1.60
2022-08-08T22:59:06.177Z,1.80
2022-08-08T23:02:03.722Z,1.77
2022-08-08T23:04:58.494Z,1.55
2022-08-08T23:07:51.125Z,1.42
2022-08-08T23:10:34.886Z,1.60
2022-08-08T23:13:11.912Z,1.30
2022-08-08T23:16:42.156Z,1.60
2022-08-08T23:18:45.930Z,1.65
2022-08-08T23:21:23.877Z,1.27
2022-08-08T23:24:00.932Z,1.75
2022-08-08T23:26:37.837Z,1.60
2022-08-08T23:29:14.771Z,1.63
2022-08-08T23:31:52.500Z,1.50
2022-08-08T23:34:31.047Z,1.50
2022-08-08T23:37:13.024Z,1.50
2022-08-08T23:39:55.550Z,1.35
2022-08-08T23:42:33.937Z,1.58
2022-08-08T23:45:16.052Z,1.38
2022-08-08T23:49:05.198Z,1.38
2022-08-08T23:50:56.979Z,1.40
2022-08-08T23:54:04.819Z,0.95
2022-08-08T23:56:34.682Z,1.30
2022-08-08T23:59:17.123Z,1.10
